sensor_id;sensor_type;location;lat;lon;timestamp;temperature;humidity
22035;DHT22;11181;51.002;4.356;2022-09-21T00:02:00;13.30;99.90
22035;DHT22;11181;51.002;4.356;2022-09-21T00:04:27;13.20;99.90
22035;DHT22;11181;51.002;4.356;2022-09-21T00:06:54;13.20;99.90
22035;DHT22;11181;51.002;4.356;2022-09-21T00:09:21;13.20;99.90
22035;DHT22;11181;51.002;4.356;2022-09-21T00:11:49;13.20;99.90
22035;DHT22;11181;51.002;4.356;2022-09-21T00:14:16;13.10;99.90
22035;DHT22;11181;51.002;4.356;2022-09-21T00:16:44;13.10;99.90
22035;DHT22;11181;51.002;4.356;2022-09-21T00:19:12;13.00;99.90
22035;DHT22;11181;51.002;4.356;2022-09-21T00:21:42;13.00;99.90
22035;DHT22;11181;51.002;4.356;2022-09-21T00:24:09;13.00;99.90
22035;DHT22;11181;51.002;4.356;2022-09-21T00:26:37;12.90;99.90
22035;DHT22;11181;51.002;4.356;2022-09-21T00:29:04;12.90;99.90
22035;DHT22;11181;51.002;4.356;2022-09-21T00:31:31;12.90;99.90
22035;DHT22;11181;51.002;4.356;2022-09-21T00:33:59;13.00;99.90
22035;DHT22;11181;51.002;4.356;2022-09-21T00:36:29;13.00;99.90
22035;DHT22;11181;51.002;4.356;2022-09-21T00:38:57;13.00;99.90
22035;DHT22;11181;51.002;4.356;2022-09-21T00:41:26;13.00;99.90
22035;DHT22;11181;51.002;4.356;2022-09-21T00:44:27;13.00;99.90
22035;DHT22;11181;51.002;4.356;2022-09-21T00:46:56;12.90;99.90
22035;DHT22;11181;51.002;4.356;2022-09-21T00:49:27;12.80;99.90
22035;DHT22;11181;51.002;4.356;2022-09-21T00:51:57;12.70;99.90
22035;DHT22;11181;51.002;4.356;2022-09-21T00:54:30;12.70;99.90
22035;DHT22;11181;51.002;4.356;2022-09-21T00:56:59;12.70;99.90
22035;DHT22;11181;51.002;4.356;2022-09-21T00:59:28;12.70;99.90
22035;DHT22;11181;51.002;4.356;2022-09-21T01:01:57;12.70;99.90
22035;DHT22;11181;51.002;4.356;2022-09-21T01:04:24;12.70;99.90
22035;DHT22;11181;51.002;4.356;2022-09-21T01:06:53;12.60;99.90
22035;DHT22;11181;51.002;4.356;2022-09-21T01:09:22;12.60;99.90
22035;DHT22;11181;51.002;4.356;2022-09-21T01:12:01;12.50;99.90
22035;DHT22;11181;51.002;4.356;2022-09-21T01:14:49;12.50;99.90
22035;DHT22;11181;51.002;4.356;2022-09-21T01:17:27;12.50;99.90
22035;DHT22;11181;51.002;4.356;2022-09-21T01:20:19;12.50;99.90
22035;DHT22;11181;51.002;4.356;2022-09-21T01:23:03;12.50;99.90
22035;DHT22;11181;51.002;4.356;2022-09-21T01:25:40;12.50;99.90
22035;DHT22;11181;51.002;4.356;2022-09-21T01:28:22;12.40;99.90
22035;DHT22;11181;51.002;4.356;2022-09-21T01:30:58;12.40;99.90
22035;DHT22;11181;51.002;4.356;2022-09-21T01:33:34;12.40;99.90
22035;DHT22;11181;51.002;4.356;2022-09-21T01:36:06;12.40;99.90
22035;DHT22;11181;51.002;4.356;2022-09-21T01:38:37;12.30;99.90
22035;DHT22;11181;51.002;4.356;2022-09-21T01:41:08;12.30;99.90
22035;DHT22;11181;51.002;4.356;2022-09-21T01:43:40;12.30;99.90
22035;DHT22;11181;51.002;4.356;2022-09-21T01:46:12;12.30;99.90
22035;DHT22;11181;51.002;4.356;2022-09-21T01:48:45;12.30;99.90
22035;DHT22;11181;51.002;4.356;2022-09-21T01:51:15;12.20;99.90
22035;DHT22;11181;51.002;4.356;2022-09-21T01:53:44;12.20;99.90
22035;DHT22;11181;51.002;4.356;2022-09-21T01:56:17;12.20;99.90
22035;DHT22;11181;51.002;4.356;2022-09-21T01:58:51;12.20;99.90
22035;DHT22;11181;51.002;4.356;2022-09-21T02:01:24;12.20;99.90
22035;DHT22;11181;51.002;4.356;2022-09-21T02:03:57;12.20;99.90
22035;DHT22;11181;51.002;4.356;2022-09-21T02:06:27;12.20;99.90
22035;DHT22;11181;51.002;4.356;2022-09-21T02:08:55;12.10;99.90
22035;DHT22;11181;51.002;4.356;2022-09-21T02:11:22;12.10;99.90
22035;DHT22;11181;51.002;4.356;2022-09-21T02:13:50;12.10;99.90
22035;DHT22;11181;51.002;4.356;2022-09-21T02:16:29;12.10;99.90
22035;DHT22;11181;51.002;4.356;2022-09-21T02:19:09;12.00;99.90
22035;DHT22;11181;51.002;4.356;2022-09-21T02:21:47;12.00;99.90
22035;DHT22;11181;51.002;4.356;2022-09-21T02:24:22;12.00;99.90
22035;DHT22;11181;51.002;4.356;2022-09-21T02:26:55;12.00;99.90
22035;DHT22;11181;51.002;4.356;2022-09-21T02:29:29;12.00;99.90
22035;DHT22;11181;51.002;4.356;2022-09-21T02:32:05;12.00;99.90
22035;DHT22;11181;51.002;4.356;2022-09-21T02:34:41;12.10;99.90
22035;DHT22;11181;51.002;4.356;2022-09-21T02:37:16;12.00;99.90
22035;DHT22;11181;51.002;4.356;2022-09-21T02:39:48;12.00;99.90
22035;DHT22;11181;51.002;4.356;2022-09-21T02:42:23;12.00;99.90
22035;DHT22;11181;51.002;4.356;2022-09-21T02:44:56;12.00;99.90
22035;DHT22;11181;51.002;4.356;2022-09-21T02:47:32;12.00;99.90
22035;DHT22;11181;51.002;4.356;2022-09-21T02:50:03;12.00;99.90
22035;DHT22;11181;51.002;4.356;2022-09-21T02:52:33;11.90;99.90
22035;DHT22;11181;51.002;4.356;2022-09-21T02:55:03;11.80;99.90
22035;DHT22;11181;51.002;4.356;2022-09-21T02:57:30;11.80;99.90
22035;DHT22;11181;51.002;4.356;2022-09-21T02:59:57;11.80;99.90
22035;DHT22;11181;51.002;4.356;2022-09-21T03:02:36;11.80;99.90
22035;DHT22;11181;51.002;4.356;2022-09-21T03:05:04;11.80;99.90
22035;DHT22;11181;51.002;4.356;2022-09-21T03:07:32;11.80;99.90
22035;DHT22;11181;51.002;4.356;2022-09-21T03:09:59;11.70;99.90
22035;DHT22;11181;51.002;4.356;2022-09-21T03:12:26;11.70;99.90
22035;DHT22;11181;51.002;4.356;2022-09-21T03:14:53;11.70;99.90
22035;DHT22;11181;51.002;4.356;2022-09-21T03:17:20;11.70;99.90
22035;DHT22;11181;51.002;4.356;2022-09-21T03:19:49;11.70;99.90
22035;DHT22;11181;51.002;4.356;2022-09-21T03:22:19;11.70;99.90
22035;DHT22;11181;51.002;4.356;2022-09-21T03:24:46;11.70;99.90
22035;DHT22;11181;51.002;4.356;2022-09-21T03:27:14;11.70;99.90
22035;DHT22;11181;51.002;4.356;2022-09-21T03:29:41;11.70;99.90
22035;DHT22;11181;51.002;4.356;2022-09-21T03:32:08;11.70;99.90
22035;DHT22;11181;51.002;4.356;2022-09-21T03:34:35;11.70;99.90
22035;DHT22;11181;51.002;4.356;2022-09-21T03:37:05;11.60;99.90
22035;DHT22;11181;51.002;4.356;2022-09-21T03:39:32;11.60;99.90
22035;DHT22;11181;51.002;4.356;2022-09-21T03:41:59;11.50;99.90
22035;DHT22;11181;51.002;4.356;2022-09-21T03:44:26;11.50;99.90
22035;DHT22;11181;51.002;4.356;2022-09-21T03:46:53;11.50;99.90
22035;DHT22;11181;51.002;4.356;2022-09-21T03:49:21;11.60;99.90
22035;DHT22;11181;51.002;4.356;2022-09-21T03:51:48;11.60;99.90
22035;DHT22;11181;51.002;4.356;2022-09-21T03:54:16;11.60;99.90
22035;DHT22;11181;51.002;4.356;2022-09-21T03:56:43;11.60;99.90
22035;DHT22;11181;51.002;4.356;2022-09-21T03:59:10;11.50;99.90
22035;DHT22;11181;51.002;4.356;2022-09-21T04:01:37;11.50;99.90
22035;DHT22;11181;51.002;4.356;2022-09-21T04:04:04;11.60;99.90
22035;DHT22;11181;51.002;4.356;2022-09-21T04:06:31;11.50;99.90
22035;DHT22;11181;51.002;4.356;2022-09-21T04:08:58;11.50;99.90
22035;DHT22;11181;51.002;4.356;2022-09-21T04:11:28;11.50;99.90
22035;DHT22;11181;51.002;4.356;2022-09-21T04:13:57;11.40;99.90
22035;DHT22;11181;51.002;4.356;2022-09-21T04:16:24;11.40;99.90
22035;DHT22;11181;51.002;4.356;2022-09-21T04:18:52;11.40;99.90
22035;DHT22;11181;51.002;4.356;2022-09-21T04:21:19;11.40;99.90
22035;DHT22;11181;51.002;4.356;2022-09-21T04:23:46;11.40;99.90
22035;DHT22;11181;51.002;4.356;2022-09-21T04:26:22;11.40;99.90
22035;DHT22;11181;51.002;4.356;2022-09-21T04:28:51;11.40;99.90
22035;DHT22;11181;51.002;4.356;2022-09-21T04:31:20;11.40;99.90
22035;DHT22;11181;51.002;4.356;2022-09-21T04:33:48;11.30;99.90
22035;DHT22;11181;51.002;4.356;2022-09-21T04:36:16;11.30;99.90
22035;DHT22;11181;51.002;4.356;2022-09-21T04:38:43;11.40;99.90
22035;DHT22;11181;51.002;4.356;2022-09-21T04:41:10;11.40;99.90
22035;DHT22;11181;51.002;4.356;2022-09-21T04:43:37;11.40;99.90
22035;DHT22;11181;51.002;4.356;2022-09-21T04:46:09;11.40;99.90
22035;DHT22;11181;51.002;4.356;2022-09-21T04:48:37;11.30;99.90
22035;DHT22;11181;51.002;4.356;2022-09-21T04:51:05;11.30;99.90
22035;DHT22;11181;51.002;4.356;2022-09-21T04:53:33;11.20;99.90
22035;DHT22;11181;51.002;4.356;2022-09-21T04:56:02;11.30;99.90
22035;DHT22;11181;51.002;4.356;2022-09-21T04:58:30;11.40;99.90
22035;DHT22;11181;51.002;4.356;2022-09-21T05:00:57;11.40;99.90
22035;DHT22;11181;51.002;4.356;2022-09-21T05:03:25;11.40;99.90
22035;DHT22;11181;51.002;4.356;2022-09-21T05:05:53;11.40;99.90
22035;DHT22;11181;51.002;4.356;2022-09-21T05:08:22;11.50;99.90
22035;DHT22;11181;51.002;4.356;2022-09-21T05:11:03;11.40;99.90
22035;DHT22;11181;51.002;4.356;2022-09-21T05:13:30;11.30;99.90
22035;DHT22;11181;51.002;4.356;2022-09-21T05:15:57;11.30;99.90
22035;DHT22;11181;51.002;4.356;2022-09-21T05:18:26;11.30;99.90
22035;DHT22;11181;51.002;4.356;2022-09-21T05:20:53;11.30;99.90
22035;DHT22;11181;51.002;4.356;2022-09-21T05:23:20;11.30;99.90
22035;DHT22;11181;51.002;4.356;2022-09-21T05:25:47;11.40;99.90
22035;DHT22;11181;51.002;4.356;2022-09-21T05:28:15;11.40;99.90
22035;DHT22;11181;51.002;4.356;2022-09-21T05:30:43;11.30;99.90
22035;DHT22;11181;51.002;4.356;2022-09-21T05:33:13;11.30;99.90
22035;DHT22;11181;51.002;4.356;2022-09-21T05:35:52;11.30;99.90
22035;DHT22;11181;51.002;4.356;2022-09-21T05:38:24;11.30;99.90
22035;DHT22;11181;51.002;4.356;2022-09-21T05:40:51;11.30;99.90
22035;DHT22;11181;51.002;4.356;2022-09-21T05:43:19;11.20;99.90
22035;DHT22;11181;51.002;4.356;2022-09-21T05:45:49;11.20;99.90
22035;DHT22;11181;51.002;4.356;2022-09-21T05:48:18;11.20;99.90
22035;DHT22;11181;51.002;4.356;2022-09-21T05:50:55;11.30;99.90
22035;DHT22;11181;51.002;4.356;2022-09-21T05:53:52;11.20;99.90
22035;DHT22;11181;51.002;4.356;2022-09-21T05:56:31;11.30;99.90
22035;DHT22;11181;51.002;4.356;2022-09-21T05:59:10;11.30;99.90
22035;DHT22;11181;51.002;4.356;2022-09-21T06:01:58;11.30;99.90
22035;DHT22;11181;51.002;4.356;2022-09-21T06:04:27;11.30;99.90
22035;DHT22;11181;51.002;4.356;2022-09-21T06:06:55;11.30;99.90
22035;DHT22;11181;51.002;4.356;2022-09-21T06:09:22;11.30;99.90
22035;DHT22;11181;51.002;4.356;2022-09-21T06:11:50;11.40;99.90
22035;DHT22;11181;51.002;4.356;2022-09-21T06:14:17;11.40;99.90
22035;DHT22;11181;51.002;4.356;2022-09-21T06:16:49;11.40;99.90
22035;DHT22;11181;51.002;4.356;2022-09-21T06:19:16;11.40;99.90
22035;DHT22;11181;51.002;4.356;2022-09-21T06:21:43;11.50;99.90
22035;DHT22;11181;51.002;4.356;2022-09-21T06:24:11;11.50;99.90
22035;DHT22;11181;51.002;4.356;2022-09-21T06:26:38;11.60;99.90
22035;DHT22;11181;51.002;4.356;2022-09-21T06:29:05;11.70;99.90
22035;DHT22;11181;51.002;4.356;2022-09-21T06:31:31;11.70;99.90
22035;DHT22;11181;51.002;4.356;2022-09-21T06:33:59;11.80;99.90
22035;DHT22;11181;51.002;4.356;2022-09-21T06:36:26;11.90;99.90
22035;DHT22;11181;51.002;4.356;2022-09-21T06:38:53;11.90;99.90
22035;DHT22;11181;51.002;4.356;2022-09-21T06:41:21;12.00;99.90
22035;DHT22;11181;51.002;4.356;2022-09-21T06:43:51;12.20;99.90
22035;DHT22;11181;51.002;4.356;2022-09-21T06:46:18;12.30;99.90
22035;DHT22;11181;51.002;4.356;2022-09-21T06:48:45;12.40;99.90
22035;DHT22;11181;51.002;4.356;2022-09-21T06:51:12;12.50;99.90
22035;DHT22;11181;51.002;4.356;2022-09-21T06:53:39;12.50;99.90
22035;DHT22;11181;51.002;4.356;2022-09-21T06:56:07;12.60;99.90
22035;DHT22;11181;51.002;4.356;2022-09-21T06:58:36;12.70;99.90
22035;DHT22;11181;51.002;4.356;2022-09-21T07:01:04;12.90;99.90
22035;DHT22;11181;51.002;4.356;2022-09-21T07:03:32;13.00;99.90
22035;DHT22;11181;51.002;4.356;2022-09-21T07:05:59;13.00;99.90
22035;DHT22;11181;51.002;4.356;2022-09-21T07:08:26;13.20;99.90
22035;DHT22;11181;51.002;4.356;2022-09-21T07:10:56;13.40;99.90
22035;DHT22;11181;51.002;4.356;2022-09-21T07:13:23;13.70;99.90
22035;DHT22;11181;51.002;4.356;2022-09-21T07:15:51;13.90;99.90
22035;DHT22;11181;51.002;4.356;2022-09-21T07:18:18;14.10;99.90
22035;DHT22;11181;51.002;4.356;2022-09-21T07:20:45;14.30;99.90
22035;DHT22;11181;51.002;4.356;2022-09-21T07:23:15;14.50;99.90
22035;DHT22;11181;51.002;4.356;2022-09-21T07:25:42;14.50;99.90
22035;DHT22;11181;51.002;4.356;2022-09-21T07:28:10;14.60;99.90
22035;DHT22;11181;51.002;4.356;2022-09-21T07:30:38;14.80;99.90
22035;DHT22;11181;51.002;4.356;2022-09-21T07:33:07;14.90;99.90
22035;DHT22;11181;51.002;4.356;2022-09-21T07:35:34;14.90;99.90
22035;DHT22;11181;51.002;4.356;2022-09-21T07:38:03;14.70;99.90
22035;DHT22;11181;51.002;4.356;2022-09-21T07:40:31;14.80;99.90
22035;DHT22;11181;51.002;4.356;2022-09-21T07:42:58;14.90;99.90
22035;DHT22;11181;51.002;4.356;2022-09-21T07:45:26;14.80;99.90
22035;DHT22;11181;51.002;4.356;2022-09-21T07:47:53;15.00;99.90
22035;DHT22;11181;51.002;4.356;2022-09-21T07:50:22;15.40;99.90
22035;DHT22;11181;51.002;4.356;2022-09-21T07:52:49;15.70;99.90
22035;DHT22;11181;51.002;4.356;2022-09-21T07:55:16;15.70;99.90
22035;DHT22;11181;51.002;4.356;2022-09-21T07:57:43;15.80;99.90
22035;DHT22;11181;51.002;4.356;2022-09-21T08:00:27;16.00;99.90
22035;DHT22;11181;51.002;4.356;2022-09-21T08:02:57;16.30;99.90
22035;DHT22;11181;51.002;4.356;2022-09-21T08:05:27;16.30;99.90
22035;DHT22;11181;51.002;4.356;2022-09-21T08:07:54;16.60;99.90
22035;DHT22;11181;51.002;4.356;2022-09-21T08:10:21;16.90;99.90
22035;DHT22;11181;51.002;4.356;2022-09-21T08:12:48;17.30;99.90
22035;DHT22;11181;51.002;4.356;2022-09-21T08:15:15;17.60;99.90
22035;DHT22;11181;51.002;4.356;2022-09-21T08:17:42;18.00;99.90
22035;DHT22;11181;51.002;4.356;2022-09-21T08:20:09;18.20;99.90
22035;DHT22;11181;51.002;4.356;2022-09-21T08:22:39;18.40;99.90
22035;DHT22;11181;51.002;4.356;2022-09-21T08:25:07;18.60;99.90
22035;DHT22;11181;51.002;4.356;2022-09-21T08:27:35;18.80;99.90
22035;DHT22;11181;51.002;4.356;2022-09-21T08:30:02;19.10;99.90
22035;DHT22;11181;51.002;4.356;2022-09-21T08:32:29;19.30;99.90
22035;DHT22;11181;51.002;4.356;2022-09-21T08:34:56;19.40;99.90
22035;DHT22;11181;51.002;4.356;2022-09-21T08:37:23;19.60;99.90
22035;DHT22;11181;51.002;4.356;2022-09-21T08:39:51;19.80;99.90
22035;DHT22;11181;51.002;4.356;2022-09-21T08:42:37;20.00;99.90
22035;DHT22;11181;51.002;4.356;2022-09-21T08:45:10;20.30;99.90
22035;DHT22;11181;51.002;4.356;2022-09-21T08:47:40;20.50;99.90
22035;DHT22;11181;51.002;4.356;2022-09-21T08:50:22;20.60;99.90
22035;DHT22;11181;51.002;4.356;2022-09-21T08:52:57;20.90;99.90
22035;DHT22;11181;51.002;4.356;2022-09-21T08:55:25;21.00;99.90
22035;DHT22;11181;51.002;4.356;2022-09-21T08:57:52;21.20;99.90
22035;DHT22;11181;51.002;4.356;2022-09-21T09:00:20;21.30;99.90
22035;DHT22;11181;51.002;4.356;2022-09-21T09:03:25;21.50;99.90
22035;DHT22;11181;51.002;4.356;2022-09-21T09:05:58;21.60;99.90
22035;DHT22;11181;51.002;4.356;2022-09-21T09:11:58;22.00;99.90
22035;DHT22;11181;51.002;4.356;2022-09-21T09:14:43;22.30;99.90
22035;DHT22;11181;51.002;4.356;2022-09-21T09:17:32;22.40;99.90
22035;DHT22;11181;51.002;4.356;2022-09-21T09:20:04;22.50;99.90
22035;DHT22;11181;51.002;4.356;2022-09-21T09:22:37;22.60;99.90
22035;DHT22;11181;51.002;4.356;2022-09-21T09:25:15;22.90;99.90
22035;DHT22;11181;51.002;4.356;2022-09-21T09:27:46;23.10;99.90
22035;DHT22;11181;51.002;4.356;2022-09-21T09:30:17;23.20;99.90
22035;DHT22;11181;51.002;4.356;2022-09-21T09:32:48;23.30;99.90
22035;DHT22;11181;51.002;4.356;2022-09-21T09:35:24;23.30;99.90
22035;DHT22;11181;51.002;4.356;2022-09-21T09:37:55;23.40;99.90
22035;DHT22;11181;51.002;4.356;2022-09-21T09:40:38;23.50;99.90
22035;DHT22;11181;51.002;4.356;2022-09-21T09:43:11;23.50;99.90
22035;DHT22;11181;51.002;4.356;2022-09-21T09:45:49;23.80;99.90
22035;DHT22;11181;51.002;4.356;2022-09-21T09:51:11;24.20;99.90
22035;DHT22;11181;51.002;4.356;2022-09-21T09:53:39;24.30;99.90
22035;DHT22;11181;51.002;4.356;2022-09-21T09:56:08;24.40;99.90
22035;DHT22;11181;51.002;4.356;2022-09-21T09:58:42;24.40;99.90
22035;DHT22;11181;51.002;4.356;2022-09-21T10:01:37;24.60;99.90
22035;DHT22;11181;51.002;4.356;2022-09-21T10:04:05;24.70;99.90
22035;DHT22;11181;51.002;4.356;2022-09-21T10:06:33;25.00;99.90
22035;DHT22;11181;51.002;4.356;2022-09-21T10:09:00;25.10;99.90
22035;DHT22;11181;51.002;4.356;2022-09-21T10:11:43;25.30;99.90
22035;DHT22;11181;51.002;4.356;2022-09-21T10:14:16;25.30;99.90
22035;DHT22;11181;51.002;4.356;2022-09-21T10:16:44;25.30;99.90
22035;DHT22;11181;51.002;4.356;2022-09-21T10:19:16;25.20;99.90
22035;DHT22;11181;51.002;4.356;2022-09-21T10:21:44;25.30;99.90
22035;DHT22;11181;51.002;4.356;2022-09-21T10:24:19;25.10;99.80
22035;DHT22;11181;51.002;4.356;2022-09-21T10:26:49;25.00;99.90
22035;DHT22;11181;51.002;4.356;2022-09-21T10:29:29;25.30;99.90
22035;DHT22;11181;51.002;4.356;2022-09-21T10:31:58;25.60;99.90
22035;DHT22;11181;51.002;4.356;2022-09-21T10:34:27;25.70;97.20
22035;DHT22;11181;51.002;4.356;2022-09-21T10:36:56;25.00;98.70
22035;DHT22;11181;51.002;4.356;2022-09-21T10:39:26;24.90;97.40
22035;DHT22;11181;51.002;4.356;2022-09-21T10:42:02;24.40;95.90
22035;DHT22;11181;51.002;4.356;2022-09-21T10:44:42;23.70;98.90
22035;DHT22;11181;51.002;4.356;2022-09-21T10:47:17;24.00;99.10
22035;DHT22;11181;51.002;4.356;2022-09-21T10:49:47;24.50;98.80
22035;DHT22;11181;51.002;4.356;2022-09-21T10:52:15;25.00;96.80
22035;DHT22;11181;51.002;4.356;2022-09-21T10:54:44;25.40;96.00
22035;DHT22;11181;51.002;4.356;2022-09-21T10:57:15;25.70;96.60
22035;DHT22;11181;51.002;4.356;2022-09-21T10:59:44;26.10;97.50
22035;DHT22;11181;51.002;4.356;2022-09-21T11:02:33;26.30;96.50
22035;DHT22;11181;51.002;4.356;2022-09-21T11:05:08;26.50;96.70
22035;DHT22;11181;51.002;4.356;2022-09-21T11:07:42;26.80;94.50
22035;DHT22;11181;51.002;4.356;2022-09-21T11:10:17;27.00;93.40
22035;DHT22;11181;51.002;4.356;2022-09-21T11:12:53;26.70;94.50
22035;DHT22;11181;51.002;4.356;2022-09-21T11:15:33;26.90;94.30
22035;DHT22;11181;51.002;4.356;2022-09-21T11:18:05;27.20;91.00
22035;DHT22;11181;51.002;4.356;2022-09-21T11:20:41;27.50;90.00
22035;DHT22;11181;51.002;4.356;2022-09-21T11:23:26;27.70;90.10
22035;DHT22;11181;51.002;4.356;2022-09-21T11:26:03;27.30;89.30
22035;DHT22;11181;51.002;4.356;2022-09-21T11:28:37;27.30;91.60
22035;DHT22;11181;51.002;4.356;2022-09-21T11:34:21;27.20;88.70
22035;DHT22;11181;51.002;4.356;2022-09-21T11:36:57;27.40;88.10
22035;DHT22;11181;51.002;4.356;2022-09-21T11:39:43;26.80;87.50
22035;DHT22;11181;51.002;4.356;2022-09-21T11:42:23;26.70;90.60
22035;DHT22;11181;51.002;4.356;2022-09-21T11:44:54;26.40;89.70
22035;DHT22;11181;51.002;4.356;2022-09-21T11:47:40;26.30;90.70
22035;DHT22;11181;51.002;4.356;2022-09-21T11:50:25;26.10;90.00
22035;DHT22;11181;51.002;4.356;2022-09-21T11:53:05;25.80;89.90
22035;DHT22;11181;51.002;4.356;2022-09-21T11:58:30;25.30;89.90
22035;DHT22;11181;51.002;4.356;2022-09-21T12:01:12;25.10;90.60
22035;DHT22;11181;51.002;4.356;2022-09-21T12:07:11;24.10;90.00
22035;DHT22;11181;51.002;4.356;2022-09-21T12:09:56;23.90;91.80
22035;DHT22;11181;51.002;4.356;2022-09-21T12:12:33;23.80;91.00
22035;DHT22;11181;51.002;4.356;2022-09-21T12:15:06;23.80;94.80
22035;DHT22;11181;51.002;4.356;2022-09-21T12:17:43;23.90;92.20
22035;DHT22;11181;51.002;4.356;2022-09-21T12:20:18;24.30;90.70
22035;DHT22;11181;51.002;4.356;2022-09-21T12:22:50;24.70;91.40
22035;DHT22;11181;51.002;4.356;2022-09-21T12:25:20;25.20;91.00
22035;DHT22;11181;51.002;4.356;2022-09-21T12:27:51;25.60;90.00
22035;DHT22;11181;51.002;4.356;2022-09-21T12:30:21;25.90;83.80
22035;DHT22;11181;51.002;4.356;2022-09-21T12:32:54;25.50;85.80
22035;DHT22;11181;51.002;4.356;2022-09-21T12:35:28;25.90;88.50
22035;DHT22;11181;51.002;4.356;2022-09-21T12:38:03;26.30;85.40
22035;DHT22;11181;51.002;4.356;2022-09-21T12:40:37;26.80;84.10
22035;DHT22;11181;51.002;4.356;2022-09-21T12:43:15;27.00;81.10
22035;DHT22;11181;51.002;4.356;2022-09-21T12:45:49;27.20;81.70
22035;DHT22;11181;51.002;4.356;2022-09-21T12:48:24;27.40;84.00
22035;DHT22;11181;51.002;4.356;2022-09-21T12:50:54;27.50;82.70
22035;DHT22;11181;51.002;4.356;2022-09-21T12:53:27;27.40;82.60
22035;DHT22;11181;51.002;4.356;2022-09-21T12:55:59;27.30;79.90
22035;DHT22;11181;51.002;4.356;2022-09-21T12:58:46;26.80;79.70
22035;DHT22;11181;51.002;4.356;2022-09-21T13:01:26;25.90;76.50
22035;DHT22;11181;51.002;4.356;2022-09-21T13:04:03;25.50;78.60
22035;DHT22;11181;51.002;4.356;2022-09-21T13:06:53;25.20;80.80
22035;DHT22;11181;51.002;4.356;2022-09-21T13:09:26;25.00;82.00
22035;DHT22;11181;51.002;4.356;2022-09-21T13:11:55;24.80;83.30
22035;DHT22;11181;51.002;4.356;2022-09-21T13:14:25;25.00;82.10
22035;DHT22;11181;51.002;4.356;2022-09-21T13:16:55;25.00;83.10
22035;DHT22;11181;51.002;4.356;2022-09-21T13:19:24;25.10;80.70
22035;DHT22;11181;51.002;4.356;2022-09-21T13:22:18;25.30;81.70
22035;DHT22;11181;51.002;4.356;2022-09-21T13:24:57;25.20;82.30
22035;DHT22;11181;51.002;4.356;2022-09-21T13:28:03;25.20;81.70
22035;DHT22;11181;51.002;4.356;2022-09-21T13:30:38;25.00;80.90
22035;DHT22;11181;51.002;4.356;2022-09-21T13:33:29;24.60;83.00
22035;DHT22;11181;51.002;4.356;2022-09-21T13:36:03;24.70;82.20
22035;DHT22;11181;51.002;4.356;2022-09-21T13:38:31;24.60;83.20
22035;DHT22;11181;51.002;4.356;2022-09-21T13:41:02;24.50;85.50
22035;DHT22;11181;51.002;4.356;2022-09-21T13:44:00;24.70;86.50
22035;DHT22;11181;51.002;4.356;2022-09-21T13:46:51;24.70;83.80
22035;DHT22;11181;51.002;4.356;2022-09-21T13:49:29;24.50;81.70
22035;DHT22;11181;51.002;4.356;2022-09-21T13:52:00;24.50;83.60
22035;DHT22;11181;51.002;4.356;2022-09-21T13:54:32;24.20;84.80
22035;DHT22;11181;51.002;4.356;2022-09-21T13:57:14;24.30;85.20
22035;DHT22;11181;51.002;4.356;2022-09-21T13:59:43;24.30;86.20
22035;DHT22;11181;51.002;4.356;2022-09-21T14:02:24;24.20;84.50
22035;DHT22;11181;51.002;4.356;2022-09-21T14:04:53;24.30;88.20
22035;DHT22;11181;51.002;4.356;2022-09-21T14:07:27;24.30;87.80
22035;DHT22;11181;51.002;4.356;2022-09-21T14:09:58;24.40;87.40
22035;DHT22;11181;51.002;4.356;2022-09-21T14:12:32;24.60;87.40
22035;DHT22;11181;51.002;4.356;2022-09-21T14:15:34;24.60;89.50
22035;DHT22;11181;51.002;4.356;2022-09-21T14:18:34;24.90;90.30
22035;DHT22;11181;51.002;4.356;2022-09-21T14:21:10;24.90;87.60
22035;DHT22;11181;51.002;4.356;2022-09-21T14:27:00;24.70;87.70
22035;DHT22;11181;51.002;4.356;2022-09-21T14:29:36;24.50;88.00
22035;DHT22;11181;51.002;4.356;2022-09-21T14:32:11;24.40;89.00
22035;DHT22;11181;51.002;4.356;2022-09-21T14:34:41;24.30;89.50
22035;DHT22;11181;51.002;4.356;2022-09-21T14:37:19;24.30;90.10
22035;DHT22;11181;51.002;4.356;2022-09-21T14:39:51;23.90;87.20
22035;DHT22;11181;51.002;4.356;2022-09-21T14:42:22;23.60;89.60
22035;DHT22;11181;51.002;4.356;2022-09-21T14:44:57;23.40;90.60
22035;DHT22;11181;51.002;4.356;2022-09-21T14:47:43;23.50;91.10
22035;DHT22;11181;51.002;4.356;2022-09-21T14:50:28;23.60;91.80
22035;DHT22;11181;51.002;4.356;2022-09-21T14:53:10;23.70;91.10
22035;DHT22;11181;51.002;4.356;2022-09-21T14:55:52;23.80;90.50
22035;DHT22;11181;51.002;4.356;2022-09-21T14:58:31;23.80;90.50
22035;DHT22;11181;51.002;4.356;2022-09-21T15:01:20;23.80;91.20
22035;DHT22;11181;51.002;4.356;2022-09-21T15:04:19;23.80;90.80
22035;DHT22;11181;51.002;4.356;2022-09-21T15:06:56;23.70;91.60
22035;DHT22;11181;51.002;4.356;2022-09-21T15:12:56;23.50;93.10
22035;DHT22;11181;51.002;4.356;2022-09-21T15:15:34;23.50;91.40
22035;DHT22;11181;51.002;4.356;2022-09-21T15:18:14;23.50;91.20
22035;DHT22;11181;51.002;4.356;2022-09-21T15:20:53;23.60;92.10
22035;DHT22;11181;51.002;4.356;2022-09-21T15:23:23;23.80;89.80
22035;DHT22;11181;51.002;4.356;2022-09-21T15:25:56;24.00;89.40
22035;DHT22;11181;51.002;4.356;2022-09-21T15:28:25;24.30;88.50
22035;DHT22;11181;51.002;4.356;2022-09-21T15:30:56;24.50;86.10
22035;DHT22;11181;51.002;4.356;2022-09-21T15:33:24;24.70;86.40
22035;DHT22;11181;51.002;4.356;2022-09-21T15:35:52;24.70;85.30
22035;DHT22;11181;51.002;4.356;2022-09-21T15:38:29;24.80;86.30
22035;DHT22;11181;51.002;4.356;2022-09-21T15:40:57;24.90;83.90
22035;DHT22;11181;51.002;4.356;2022-09-21T15:43:24;25.00;83.60
22035;DHT22;11181;51.002;4.356;2022-09-21T15:45:53;25.00;83.60
22035;DHT22;11181;51.002;4.356;2022-09-21T15:48:24;25.00;83.40
22035;DHT22;11181;51.002;4.356;2022-09-21T15:50:53;25.00;83.40
22035;DHT22;11181;51.002;4.356;2022-09-21T15:53:26;25.10;83.00
22035;DHT22;11181;51.002;4.356;2022-09-21T15:55:54;25.20;82.80
22035;DHT22;11181;51.002;4.356;2022-09-21T15:58:30;25.00;83.80
22035;DHT22;11181;51.002;4.356;2022-09-21T16:01:00;24.60;85.10
22035;DHT22;11181;51.002;4.356;2022-09-21T16:03:29;24.30;86.70
22035;DHT22;11181;51.002;4.356;2022-09-21T16:05:56;24.00;86.40
22035;DHT22;11181;51.002;4.356;2022-09-21T16:08:29;23.30;87.70
22035;DHT22;11181;51.002;4.356;2022-09-21T16:11:13;23.40;89.80
22035;DHT22;11181;51.002;4.356;2022-09-21T16:13:41;23.50;90.10
22035;DHT22;11181;51.002;4.356;2022-09-21T16:16:25;23.30;88.70
22035;DHT22;11181;51.002;4.356;2022-09-21T16:18:54;23.10;89.80
22035;DHT22;11181;51.002;4.356;2022-09-21T16:21:25;23.10;90.40
22035;DHT22;11181;51.002;4.356;2022-09-21T16:23:56;23.10;91.40
22035;DHT22;11181;51.002;4.356;2022-09-21T16:26:27;23.10;91.50